Accueil
METAR-TAF:

METAR-TAF

Aéroports :

Chandigarh, Inde

latitude: 30-40-29N, longitude: 76-47-26E, altitude: 314 m

METAR: absent

Heure: 02:50 (21:20 UTC)

Prévision

Le bulletin a été fait il y a 11 heures et 50 minutes, à 09:30 UTC
Prévision valable du 26 à 12 UTC au 26 à 24 UTC
Vent 5 kt de sud/sud-est
Visibilité: 6000 m
Quelques nuages à une hauteur de 3000 ft
Nuages épars à une hauteur de 25000 ft
Evoluant progressivement
du 26 à 13 UTC au 26 à 14 UTC
Visibilité: 5000 m
Nuages épars à une hauteur de 25000 ft
brume sèche

TAF: VICG 260930Z 2612/2624 16005KT 6000 FEW030 SCT250 BECMG 2613/2614 5000 HZ SCT250

Observations et prévisions météorologiques de plus de 4000 aéroports (messages METAR et TAF).

Les stations disponibles sont représentées par des disques jaunes et rouges sur la carte.

Passer la souris dessus pour voir le nom de la station.

Cliquer dessus pour voir les observations et prévisions météorologiques.

Pour changer de carte: cliquez sur les boutons verts avec une croix noire pour zoomer, sur le bouton vert avec un tiret pour effectuer un zoom arrière, ou sur les flèches vertes pour les cartes adjacentes.


METAR-TAF: